createdAt,value
2022-09-17T00:00:22.070Z,10.90
2022-09-17T00:02:57.782Z,10.90
2022-09-17T00:05:25.164Z,10.90
2022-09-17T00:07:52.898Z,10.90
2022-09-17T00:10:20.542Z,10.90
2022-09-17T00:12:47.811Z,10.90
2022-09-17T00:15:15.120Z,10.90
2022-09-17T00:17:41.998Z,10.90
2022-09-17T00:20:10.688Z,10.90
2022-09-17T00:22:39.266Z,10.90
2022-09-17T00:25:08.380Z,10.90
2022-09-17T00:27:35.385Z,10.90
2022-09-17T00:30:02.514Z,10.90
2022-09-17T00:32:29.947Z,10.80
2022-09-17T00:34:56.716Z,10.90
2022-09-17T00:37:23.617Z,10.90
2022-09-17T00:39:50.947Z,11.00
2022-09-17T00:42:19.783Z,10.90
2022-09-17T00:44:49.055Z,10.90
2022-09-17T00:47:30.903Z,11.00
2022-09-17T00:50:10.306Z,11.00
2022-09-17T00:52:47.810Z,11.00
2022-09-17T00:55:47.216Z,10.90
2022-09-17T00:58:16.774Z,11.00
2022-09-17T01:00:43.580Z,10.90
2022-09-17T01:03:10.463Z,11.00
2022-09-17T01:06:13.578Z,10.90
2022-09-17T01:09:11.480Z,10.90
2022-09-17T01:12:03.604Z,10.90
2022-09-17T01:14:36.775Z,10.80
2022-09-17T01:17:24.077Z,10.80
2022-09-17T01:20:16.593Z,10.70
2022-09-17T01:23:04.291Z,10.80
2022-09-17T01:25:49.191Z,10.70
2022-09-17T01:28:42.863Z,10.80
2022-09-17T01:31:28.471Z,10.70
2022-09-17T01:34:19.299Z,10.70
2022-09-17T01:37:06.345Z,10.70
2022-09-17T01:39:57.770Z,10.70
2022-09-17T01:42:36.254Z,10.70
2022-09-17T01:45:17.417Z,10.70
2022-09-17T01:47:49.602Z,10.70
2022-09-17T01:50:21.776Z,10.70
2022-09-17T01:52:52.299Z,10.70
2022-09-17T01:55:22.663Z,10.70
2022-09-17T01:57:57.131Z,10.60
2022-09-17T02:00:24.947Z,10.60
2022-09-17T02:03:01.466Z,10.60
2022-09-17T02:05:34.831Z,10.70
2022-09-17T02:08:14.019Z,10.70
2022-09-17T02:10:46.970Z,10.70
2022-09-17T02:13:20.487Z,10.60
2022-09-17T02:15:55.443Z,10.60
2022-09-17T02:19:00.387Z,10.60
2022-09-17T02:21:46.776Z,10.60
2022-09-17T02:24:30.188Z,10.60
2022-09-17T02:27:19.130Z,10.60
2022-09-17T02:29:46.022Z,10.60
2022-09-17T02:32:13.626Z,10.60
2022-09-17T02:34:40.890Z,10.50
2022-09-17T02:37:08.283Z,10.50
2022-09-17T02:39:35.305Z,10.50
2022-09-17T02:42:26.221Z,10.50
2022-09-17T02:45:17.943Z,10.50
2022-09-17T02:47:53.999Z,10.40
2022-09-17T02:50:37.688Z,10.40
2022-09-17T02:53:15.834Z,10.40
2022-09-17T02:56:00.948Z,10.40
2022-09-17T02:58:44.422Z,10.50
2022-09-17T03:01:41.757Z,10.40
2022-09-17T03:04:12.716Z,10.40
2022-09-17T03:06:41.110Z,10.40
2022-09-17T03:09:08.434Z,10.30
2022-09-17T03:11:35.275Z,10.40
2022-09-17T03:14:02.381Z,10.30
2022-09-17T03:16:29.199Z,10.30
2022-09-17T03:18:56.088Z,10.30
2022-09-17T03:21:22.923Z,10.20
2022-09-17T03:23:49.742Z,10.20
2022-09-17T03:26:16.516Z,10.20
2022-09-17T03:28:43.300Z,10.20
2022-09-17T03:31:10.146Z,10.10
2022-09-17T03:33:37.033Z,10.10
2022-09-17T03:36:03.947Z,10.00
2022-09-17T03:38:31.075Z,9.90
2022-09-17T03:41:03.137Z,9.80
2022-09-17T03:43:30.146Z,9.80
2022-09-17T03:45:57.079Z,9.70
2022-09-17T03:48:24.247Z,9.80
2022-09-17T03:50:51.039Z,9.70
2022-09-17T03:53:17.984Z,9.70
2022-09-17T03:55:44.750Z,9.70
2022-09-17T03:58:11.980Z,9.70
2022-09-17T04:00:38.760Z,9.80
2022-09-17T04:03:06.530Z,9.80
2022-09-17T04:05:33.574Z,9.80
2022-09-17T04:08:00.521Z,9.80
2022-09-17T04:10:27.301Z,9.80
2022-09-17T04:12:54.090Z,9.80
2022-09-17T04:15:20.868Z,9.70
2022-09-17T04:17:47.677Z,9.70
2022-09-17T04:20:14.539Z,9.70
2022-09-17T04:22:41.900Z,9.60
2022-09-17T04:25:09.078Z,9.60
2022-09-17T04:27:35.945Z,9.50
2022-09-17T04:30:02.834Z,9.50
2022-09-17T04:32:29.827Z,9.40
2022-09-17T04:34:56.883Z,9.40
2022-09-17T04:37:25.692Z,9.30
2022-09-17T04:39:52.848Z,9.30
2022-09-17T04:42:19.784Z,9.40
2022-09-17T04:44:46.994Z,9.40
2022-09-17T04:47:13.898Z,9.50
2022-09-17T04:49:40.887Z,9.50
2022-09-17T04:52:07.675Z,9.50
2022-09-17T04:54:34.497Z,9.60
2022-09-17T04:57:01.580Z,9.60
2022-09-17T04:59:28.385Z,9.50
2022-09-17T05:01:55.314Z,9.50
2022-09-17T05:04:22.187Z,9.50
2022-09-17T05:06:49.541Z,9.50
2022-09-17T05:09:16.479Z,9.50
2022-09-17T05:11:43.439Z,9.40
2022-09-17T05:14:10.258Z,9.40
2022-09-17T05:16:37.077Z,9.40
2022-09-17T05:19:04.226Z,9.40
2022-09-17T05:21:31.027Z,9.40
2022-09-17T05:23:58.345Z,9.30
2022-09-17T05:26:25.381Z,9.30
2022-09-17T05:28:52.219Z,9.40
2022-09-17T05:31:19.068Z,9.40
2022-09-17T05:33:46.028Z,9.40
2022-09-17T05:36:12.854Z,9.40
2022-09-17T05:38:39.656Z,9.40
2022-09-17T05:41:07.077Z,9.40
2022-09-17T05:43:34.240Z,9.30
2022-09-17T05:46:05.832Z,9.30
2022-09-17T05:48:32.790Z,9.30
2022-09-17T05:50:59.572Z,9.20
2022-09-17T05:53:26.423Z,9.20
2022-09-17T05:55:59.676Z,9.30
2022-09-17T05:58:27.245Z,9.30
2022-09-17T06:00:54.040Z,9.40
2022-09-17T06:03:22.783Z,9.40
2022-09-17T06:05:58.702Z,9.40
2022-09-17T06:08:27.030Z,9.50
2022-09-17T06:10:55.417Z,9.50
2022-09-17T06:13:23.813Z,9.60
2022-09-17T06:15:52.123Z,9.60
2022-09-17T06:18:19.980Z,9.60
2022-09-17T06:20:54.960Z,9.70
2022-09-17T06:23:22.288Z,9.70
2022-09-17T06:25:56.900Z,9.70
2022-09-17T06:28:24.334Z,9.60
2022-09-17T06:30:54.410Z,9.70
2022-09-17T06:33:22.269Z,9.80
2022-09-17T06:35:49.539Z,9.80
2022-09-17T06:38:16.395Z,9.80
2022-09-17T06:40:43.230Z,9.90
2022-09-17T06:43:10.081Z,9.90
2022-09-17T06:45:36.860Z,10.00
2022-09-17T06:48:05.318Z,10.00
2022-09-17T06:50:32.156Z,10.10
2022-09-17T06:52:58.960Z,10.10
2022-09-17T06:55:25.943Z,10.30
2022-09-17T06:57:52.746Z,10.40
2022-09-17T07:00:19.625Z,10.40
2022-09-17T07:02:56.572Z,10.30
2022-09-17T07:05:23.895Z,10.20
2022-09-17T07:07:51.080Z,10.10
2022-09-17T07:10:18.504Z,10.10
2022-09-17T07:12:49.718Z,10.20
2022-09-17T07:15:17.110Z,10.40
2022-09-17T07:17:44.576Z,10.50
2022-09-17T07:20:11.841Z,10.60
2022-09-17T07:22:38.759Z,10.60
2022-09-17T07:25:06.620Z,10.40
2022-09-17T07:27:33.740Z,10.40
2022-09-17T07:30:00.596Z,10.40
2022-09-17T07:32:30.827Z,10.40
2022-09-17T07:34:57.683Z,10.40
2022-09-17T07:37:24.578Z,10.50
2022-09-17T07:39:51.414Z,10.50
2022-09-17T07:42:18.239Z,10.60
2022-09-17T07:44:46.678Z,10.60
2022-09-17T07:47:13.468Z,10.60
2022-09-17T07:49:40.308Z,10.70
2022-09-17T07:52:07.205Z,10.80
2022-09-17T07:54:37.318Z,11.00
2022-09-17T07:57:04.916Z,11.00
2022-09-17T07:59:31.805Z,11.10
2022-09-17T08:01:58.700Z,11.20
2022-09-17T08:04:25.790Z,11.20
2022-09-17T08:06:52.575Z,11.30
2022-09-17T08:09:19.442Z,11.30
2022-09-17T08:12:01.625Z,11.50
2022-09-17T08:14:29.939Z,11.50
2022-09-17T08:16:57.499Z,11.70
2022-09-17T08:19:24.559Z,11.70
2022-09-17T08:21:52.163Z,11.90
2022-09-17T08:24:18.961Z,11.90
2022-09-17T08:26:45.750Z,11.90
2022-09-17T08:29:12.546Z,11.80
2022-09-17T08:31:39.473Z,11.90
2022-09-17T08:34:09.993Z,12.00
2022-09-17T08:36:37.005Z,12.00
2022-09-17T08:39:04.259Z,12.10
2022-09-17T08:41:41.598Z,12.10
2022-09-17T08:44:14.489Z,12.20
2022-09-17T08:46:50.642Z,12.30
2022-09-17T08:49:23.786Z,12.40
2022-09-17T08:52:18.449Z,12.40
2022-09-17T08:55:11.497Z,12.50
2022-09-17T08:57:47.189Z,12.70
2022-09-17T09:00:18.622Z,12.80
2022-09-17T09:03:13.698Z,12.80
2022-09-17T09:05:48.428Z,12.80
2022-09-17T09:08:19.467Z,13.00
2022-09-17T09:11:01.800Z,13.10
2022-09-17T09:13:42.242Z,13.20
2022-09-17T09:16:17.867Z,13.40
2022-09-17T09:18:44.891Z,13.20
2022-09-17T09:21:17.715Z,13.40
2022-09-17T09:23:54.259Z,13.40
2022-09-17T09:26:44.892Z,13.40
2022-09-17T09:29:32.641Z,13.70
2022-09-17T09:32:23.345Z,13.70
2022-09-17T09:34:51.449Z,13.60
2022-09-17T09:37:21.974Z,14.10
2022-09-17T09:39:51.606Z,14.30
2022-09-17T09:42:32.317Z,14.20
2022-09-17T09:45:11.635Z,14.00
2022-09-17T09:48:06.240Z,14.20
2022-09-17T09:50:54.736Z,14.60
2022-09-17T09:53:49.228Z,14.50
2022-09-17T09:56:37.573Z,14.60
2022-09-17T09:59:07.999Z,14.40
2022-09-17T10:01:41.085Z,14.30
2022-09-17T10:04:24.293Z,14.30
2022-09-17T10:07:00.543Z,14.70
2022-09-17T10:09:30.047Z,15.00
2022-09-17T10:12:02.358Z,15.00
2022-09-17T10:14:31.982Z,14.60
2022-09-17T10:17:26.853Z,15.00
2022-09-17T10:19:59.828Z,15.30
2022-09-17T10:22:31.617Z,15.80
2022-09-17T10:25:00.939Z,16.00
2022-09-17T10:27:28.753Z,16.30
2022-09-17T10:30:17.685Z,16.30
2022-09-17T10:33:05.192Z,15.70
2022-09-17T10:35:32.939Z,15.30
2022-09-17T10:37:59.791Z,15.20
2022-09-17T10:40:30.599Z,15.00
2022-09-17T10:43:21.623Z,15.50
2022-09-17T10:46:00.105Z,15.80
2022-09-17T10:48:32.733Z,15.90
2022-09-17T10:51:01.627Z,15.70
2022-09-17T10:53:28.882Z,15.70
2022-09-17T10:56:05.360Z,15.60
2022-09-17T10:58:42.469Z,15.10
2022-09-17T11:01:34.712Z,15.40
2022-09-17T11:04:31.996Z,15.40
2022-09-17T11:07:22.927Z,15.60
2022-09-17T11:09:59.059Z,15.70
2022-09-17T11:12:55.754Z,15.40
2022-09-17T11:15:43.958Z,15.00
2022-09-17T11:18:22.918Z,14.80
2022-09-17T11:21:11.266Z,15.00
2022-09-17T11:23:49.866Z,15.30
2022-09-17T11:26:19.438Z,15.60
2022-09-17T11:29:04.755Z,15.80
2022-09-17T11:32:10.936Z,15.30
2022-09-17T11:34:50.753Z,15.00
2022-09-17T11:37:33.911Z,15.00
2022-09-17T11:40:08.824Z,15.20
2022-09-17T11:42:56.779Z,15.00
2022-09-17T11:45:46.311Z,14.80
2022-09-17T11:48:20.448Z,14.60
2022-09-17T11:51:17.125Z,14.60
2022-09-17T11:54:23.911Z,14.30
2022-09-17T11:57:19.444Z,14.90
2022-09-17T12:00:06.091Z,15.20
2022-09-17T12:03:19.294Z,14.50
2022-09-17T12:05:57.004Z,13.90
2022-09-17T12:09:16.120Z,14.30
2022-09-17T12:12:01.298Z,14.90
2022-09-17T12:14:57.221Z,15.20
2022-09-17T12:17:31.571Z,14.90
2022-09-17T12:20:14.046Z,14.90
2022-09-17T12:22:43.607Z,14.80
2022-09-17T12:25:12.991Z,14.70
2022-09-17T12:28:08.232Z,14.80
2022-09-17T12:30:54.727Z,14.80
2022-09-17T12:33:45.729Z,14.30
2022-09-17T12:36:32.164Z,13.60
2022-09-17T12:39:04.479Z,13.70
2022-09-17T12:41:53.147Z,13.90
2022-09-17T12:44:40.887Z,14.60
2022-09-17T12:47:45.050Z,15.70
2022-09-17T12:50:26.426Z,16.30
2022-09-17T12:53:17.968Z,15.70
2022-09-17T12:55:54.483Z,15.30
2022-09-17T12:59:09.934Z,14.70
2022-09-17T13:01:57.927Z,14.60
2022-09-17T13:05:00.363Z,14.80
2022-09-17T13:07:47.993Z,15.30
2022-09-17T13:10:26.945Z,15.30
2022-09-17T13:13:05.290Z,14.80
2022-09-17T13:15:54.118Z,14.50
2022-09-17T13:18:41.748Z,14.70
2022-09-17T13:21:24.126Z,15.20
2022-09-17T13:23:52.360Z,16.10
2022-09-17T13:26:21.079Z,16.50
2022-09-17T13:28:52.181Z,16.40
2022-09-17T13:31:39.273Z,15.80
2022-09-17T13:34:18.242Z,15.20
2022-09-17T13:36:49.229Z,14.80
2022-09-17T13:39:43.650Z,15.20
2022-09-17T13:42:28.920Z,15.40
2022-09-17T13:45:04.420Z,15.50
2022-09-17T13:47:40.471Z,16.10
2022-09-17T13:50:24.686Z,16.10
2022-09-17T13:52:53.311Z,16.20
2022-09-17T13:55:44.659Z,16.40
2022-09-17T13:58:23.336Z,16.10
2022-09-17T14:00:56.394Z,16.30
2022-09-17T14:03:34.153Z,16.00
2022-09-17T14:06:14.783Z,15.80
2022-09-17T14:08:44.419Z,16.20
2022-09-17T14:11:23.547Z,15.80
2022-09-17T14:13:52.139Z,14.90
2022-09-17T14:16:37.308Z,13.90
2022-09-17T14:19:16.372Z,13.30
2022-09-17T14:22:05.485Z,13.00
2022-09-17T14:24:52.359Z,12.90
2022-09-17T14:27:44.546Z,13.00
2022-09-17T14:30:26.380Z,13.60
2022-09-17T14:32:57.539Z,14.20
2022-09-17T14:35:43.870Z,14.40
2022-09-17T14:38:21.468Z,14.60
2022-09-17T14:41:00.870Z,14.70
2022-09-17T14:43:38.660Z,14.70
2022-09-17T14:46:12.053Z,14.30
2022-09-17T14:48:38.921Z,13.90
2022-09-17T14:51:18.445Z,13.50
2022-09-17T14:53:46.888Z,12.80
2022-09-17T14:56:19.870Z,12.70
2022-09-17T14:58:50.392Z,13.50
2022-09-17T15:01:30.859Z,14.30
2022-09-17T15:04:12.826Z,14.90
2022-09-17T15:06:43.990Z,15.20
2022-09-17T15:09:24.596Z,15.60
2022-09-17T15:11:55.054Z,15.60
2022-09-17T15:14:28.232Z,15.20
2022-09-17T15:16:58.154Z,15.30
2022-09-17T15:19:35.878Z,15.00
2022-09-17T15:22:13.118Z,14.90
2022-09-17T15:24:50.449Z,14.90
2022-09-17T15:27:23.432Z,15.00
2022-09-17T15:29:55.054Z,15.20
2022-09-17T15:32:22.114Z,15.10
2022-09-17T15:35:13.798Z,15.00
2022-09-17T15:40:41.251Z,14.70
2022-09-17T15:43:23.178Z,14.90
2022-09-17T15:45:50.206Z,15.00
2022-09-17T15:48:26.252Z,15.10
2022-09-17T15:50:55.590Z,15.40
2022-09-17T15:53:24.007Z,15.30
2022-09-17T15:56:04.991Z,15.20
2022-09-17T15:58:42.670Z,15.10
2022-09-17T16:01:18.413Z,14.70
2022-09-17T16:03:45.347Z,14.20
2022-09-17T16:06:18.397Z,14.00
2022-09-17T16:08:49.597Z,13.90
2022-09-17T16:11:22.030Z,14.00
2022-09-17T16:13:50.438Z,14.30
2022-09-17T16:16:22.256Z,14.40
2022-09-17T16:18:49.909Z,14.60
2022-09-17T16:21:18.320Z,14.50
2022-09-17T16:23:46.608Z,14.30
2022-09-17T16:26:23.777Z,14.00
2022-09-17T16:28:53.964Z,13.80
2022-09-17T16:31:21.307Z,13.70
2022-09-17T16:33:48.130Z,13.50
2022-09-17T16:36:18.390Z,13.50
2022-09-17T16:38:45.203Z,13.40
2022-09-17T16:41:12.365Z,13.30
2022-09-17T16:43:40.326Z,13.30
2022-09-17T16:46:10.745Z,13.70
2022-09-17T16:48:38.566Z,13.90
2022-09-17T16:51:12.987Z,14.10
2022-09-17T16:53:40.552Z,13.80
2022-09-17T16:56:08.323Z,13.70
2022-09-17T16:58:35.624Z,14.00
2022-09-17T17:01:13.848Z,13.90
2022-09-17T17:03:40.954Z,13.70
2022-09-17T17:06:15.567Z,13.70
2022-09-17T17:08:42.375Z,13.50
2022-09-17T17:11:09.696Z,13.30
2022-09-17T17:13:36.508Z,13.10
2022-09-17T17:16:11.257Z,12.80
2022-09-17T17:18:38.191Z,12.70
2022-09-17T17:21:09.911Z,12.50
2022-09-17T17:23:36.932Z,12.40
2022-09-17T17:26:04.079Z,12.30
2022-09-17T17:28:35.643Z,12.20
2022-09-17T17:31:06.002Z,12.10
2022-09-17T17:33:33.260Z,12.00
2022-09-17T17:36:07.303Z,11.90
2022-09-17T17:38:35.283Z,11.80
2022-09-17T17:41:14.155Z,11.60
2022-09-17T17:43:41.959Z,11.50
2022-09-17T17:46:11.204Z,11.40
2022-09-17T17:48:38.294Z,11.40
2022-09-17T17:51:09.993Z,11.40
2022-09-17T17:53:37.474Z,11.30
2022-09-17T17:56:06.767Z,11.30
2022-09-17T17:58:34.510Z,11.30
2022-09-17T18:01:10.198Z,11.30
2022-09-17T18:03:37.013Z,11.30
2022-09-17T18:06:05.949Z,11.30
2022-09-17T18:08:34.908Z,11.30
2022-09-17T18:11:04.117Z,11.30
2022-09-17T18:13:30.979Z,11.20
2022-09-17T18:16:00.560Z,11.20
2022-09-17T18:18:36.693Z,11.10
2022-09-17T18:21:07.331Z,11.10
2022-09-17T18:23:36.605Z,11.00
2022-09-17T18:26:05.774Z,10.90
2022-09-17T18:28:35.057Z,10.90
2022-09-17T18:31:19.197Z,10.90
2022-09-17T18:33:46.256Z,10.90
2022-09-17T18:36:13.409Z,10.90
2022-09-17T18:38:40.295Z,10.90
2022-09-17T18:41:10.670Z,10.70
2022-09-17T18:43:37.581Z,10.70
2022-09-17T18:46:05.367Z,10.60
2022-09-17T18:48:36.350Z,10.60
2022-09-17T18:51:08.783Z,10.50
2022-09-17T18:53:37.335Z,10.40
2022-09-17T18:56:19.727Z,10.40
2022-09-17T18:58:51.760Z,10.50
2022-09-17T19:01:21.161Z,10.40
2022-09-17T19:03:48.179Z,10.40
2022-09-17T19:06:16.246Z,10.50
2022-09-17T19:08:44.259Z,10.40
2022-09-17T19:11:11.929Z,10.40
2022-09-17T19:13:43.863Z,10.30
2022-09-17T19:16:12.626Z,10.40
2022-09-17T19:18:39.556Z,10.30
2022-09-17T19:21:10.246Z,10.30
2022-09-17T19:23:41.422Z,10.30
2022-09-17T19:26:10.854Z,10.20
2022-09-17T19:28:37.727Z,10.20
2022-09-17T19:31:14.033Z,10.20
2022-09-17T19:33:41.421Z,10.10
2022-09-17T19:36:11.799Z,10.10
2022-09-17T19:38:38.590Z,10.00
2022-09-17T19:41:12.310Z,9.90
2022-09-17T19:43:39.531Z,9.90
2022-09-17T19:46:10.209Z,9.80
2022-09-17T19:48:37.134Z,9.90
2022-09-17T19:51:05.626Z,9.90
2022-09-17T19:53:33.102Z,9.80
2022-09-17T19:56:02.669Z,9.80
2022-09-17T19:58:29.484Z,9.90
2022-09-17T20:00:57.372Z,9.80
2022-09-17T20:03:25.142Z,9.90
2022-09-17T20:06:03.989Z,9.90
2022-09-17T20:08:31.268Z,9.80
2022-09-17T20:11:08.625Z,9.90
2022-09-17T20:13:35.555Z,9.90
2022-09-17T20:16:07.616Z,9.90
2022-09-17T20:18:36.082Z,9.90
2022-09-17T20:21:15.590Z,9.90
2022-09-17T20:23:42.978Z,9.90
2022-09-17T20:26:11.327Z,9.90
2022-09-17T20:28:38.313Z,9.90
2022-09-17T20:31:12.360Z,9.90
2022-09-17T20:33:39.613Z,9.90
2022-09-17T20:36:17.898Z,9.90
2022-09-17T20:41:34.279Z,9.90
2022-09-17T20:44:01.228Z,9.80
2022-09-17T20:46:29.475Z,9.80
2022-09-17T20:48:58.244Z,9.90
2022-09-17T20:51:28.338Z,9.80
2022-09-17T20:53:57.314Z,9.90
2022-09-17T20:56:26.966Z,9.90
2022-09-17T20:59:04.030Z,9.80
2022-09-17T21:01:35.626Z,9.90
2022-09-17T21:04:13.281Z,9.90
2022-09-17T21:06:43.498Z,9.90
2022-09-17T21:09:12.329Z,9.80
2022-09-17T21:11:39.500Z,9.80
2022-09-17T21:14:06.528Z,9.80
2022-09-17T21:16:33.339Z,9.70
2022-09-17T21:19:02.897Z,9.70
2022-09-17T21:21:30.083Z,9.70
2022-09-17T21:24:01.210Z,9.60
2022-09-17T21:26:28.098Z,9.60
2022-09-17T21:28:56.415Z,9.60
2022-09-17T21:31:32.446Z,9.60
2022-09-17T21:34:01.990Z,9.60
2022-09-17T21:36:31.696Z,9.60
2022-09-17T21:39:01.343Z,9.60
2022-09-17T21:41:29.158Z,9.50
2022-09-17T21:43:56.479Z,9.40
2022-09-17T21:46:25.915Z,9.40
2022-09-17T21:48:56.789Z,9.40
2022-09-17T21:51:34.093Z,9.30
2022-09-17T21:54:04.581Z,9.30
2022-09-17T21:56:32.021Z,9.30
2022-09-17T21:59:01.583Z,9.30
2022-09-17T22:01:35.599Z,9.30
2022-09-17T22:04:02.550Z,9.40
2022-09-17T22:06:31.108Z,9.30
2022-09-17T22:08:59.378Z,9.30
2022-09-17T22:11:31.529Z,9.30
2022-09-17T22:14:21.250Z,9.30
2022-09-17T22:16:52.043Z,9.40
2022-09-17T22:19:20.331Z,9.30
2022-09-17T22:21:51.937Z,9.30
2022-09-17T22:24:20.467Z,9.20
2022-09-17T22:26:54.163Z,9.30
2022-09-17T22:29:24.669Z,9.30
2022-09-17T22:31:51.619Z,9.20
2022-09-17T22:34:21.518Z,9.10
2022-09-17T22:36:49.250Z,9.20
2022-09-17T22:39:18.920Z,9.10
2022-09-17T22:41:45.986Z,9.10
2022-09-17T22:44:18.435Z,9.10
2022-09-17T22:46:47.590Z,9.10
2022-09-17T22:49:15.144Z,9.20
2022-09-17T22:51:42.860Z,9.10
2022-09-17T22:54:12.168Z,9.10
2022-09-17T22:56:39.343Z,9.00
2022-09-17T22:59:06.260Z,9.10
2022-09-17T23:01:36.375Z,9.10
2022-09-17T23:04:04.834Z,9.20
2022-09-17T23:06:34.429Z,9.20
2022-09-17T23:09:02.003Z,9.20
2022-09-17T23:11:34.777Z,9.30
2022-09-17T23:14:04.393Z,9.20
2022-09-17T23:16:42.899Z,9.20
2022-09-17T23:19:10.714Z,9.20
2022-09-17T23:21:38.480Z,9.20
2022-09-17T23:24:05.668Z,9.20
2022-09-17T23:26:32.492Z,9.10
2022-09-17T23:29:04.662Z,9.10
2022-09-17T23:31:34.717Z,9.10
2022-09-17T23:34:02.165Z,9.00
2022-09-17T23:36:31.114Z,9.00
2022-09-17T23:38:59.232Z,9.00
2022-09-17T23:41:31.713Z,9.00
2022-09-17T23:44:00.777Z,9.00
2022-09-17T23:46:31.188Z,9.00
2022-09-17T23:48:58.574Z,8.90
2022-09-17T23:51:29.522Z,8.90
2022-09-17T23:53:57.084Z,8.90
2022-09-17T23:56:25.647Z,8.90
2022-09-17T23:58:54.385Z,9.00
